Axtell, UT

12:58 PM MDT on August 30, 2015 (GMT -0600)
APRSWXNET | | Change Station
CLOSE
Current Station
Personal Weather Station
Location: Gunnison, UT
Elevation: 5098 ft
Nearby Weather Stations

Elev 5098 ft 39.14 °N, 111.82 °W | Updated 20 minutes ago

Partly Cloudy
Partly Cloudy
88 °F
Feels Like 85 °F
N
0
Wind Variable Wind from West
Gusts 0.0 mph

Today
High -- | Low -- °F
--% Chance of Precip.
Yesterday
High -- | Low -- °F
Precip. -- in
6:53 AM 8:00 PM
Full, 98% visible
Pressure 29.87 in
Visibility 7.0 miles
Clouds Few 4600 ft
Scattered Clouds 8000 ft
Mostly Cloudy 10000 ft
Heat Index 85 °F
Dew Point 47 °F
Humidity 24%
Rainfall in
Snow Depth Not available.
UV 6 out of 12
Pollen 8.80 out of 12
Air Quality Not available.
Flu Activity Not available.
METAR KPUC 301853Z AUTO 35005KT 7SM -RA FEW046 SCT080 BKN100 23/11 A3012 RMK AO2 LTG DSNT NE AND S AND SW RAB45 SLP115 P0001 T02280106
Pressure 29.87 in
Visibility 7.0 miles
Clouds Few 4600 ft
Scattered Clouds 8000 ft
Mostly Cloudy 10000 ft
Heat Index 85 °F
Dew Point 47 °F
Humidity 24%
Rainfall in
Snow Depth Not available.
UV 6 out of 12
Pollen 8.80 out of 12
Air Quality Not available.
Flu Activity Not available.
METAR KPUC 301853Z AUTO 35005KT 7SM -RA FEW046 SCT080 BKN100 23/11 A3012 RMK AO2 LTG DSNT NE AND S AND SW RAB45 SLP115 P0001 T02280106
Nowcast | as of 11:47 am MDT on August 30, 2015

Showers and thunderstorms are developing quickly across portions of southwest and eastern Utah including southwest Wyoming. The strongest storms at 1145 am were located over the central mountains in Sevier...Piute...Emery...Wayne and western Garfield counties and just south of Moon Lake in Duchesne and near Strawberry Reservoir in southern Wasatch. The main threat from these storms are gusty winds along with dangerous lightning...brief heavy rain and small possible.

×

10-Day Weather Forecast

×

Almanac

Astronomy

Aug. 30, 2015 Rise Set
Actual Time
Civil Twilight
Nautical Twilight
Astronomical Twilight
Moon
Length of Visible Light
Length of Day
Tomorrow will be .
, % of the Moon is Illuminated

Today's Extremes

State Highs State Lows

Community

WunderPhotos

Upload Photos

1,851,031 photos uploaded!

WunderBlogs® & News

Nearby

Air Quality

  Air Quality AQ Index Pollutant
Not available.

Snow Depth

Station Depth Elevation

Earthquake Activity

City Distance Mag. Time & Date
Minimum magnitude displayed is 2.5.

Coastal Water Temperatures

Place Temperature

Stations

Nearby Weather Stations

Station Location Temp. Windchill Dew Point Humidity Wind Precip. Elev Updated Type